Emerald — V7RR6 — position and weather

sailwx.info

Track history (hours):
 
Tides and Currents Weather Stations Pressure Air Temp Water Temp Dewpoint Dewpoint Depression Visibility Wind Speed Wind Dir Waves Ship Positions

Emerald

Last reported at 2017-Oct-09 03:48 UTC. Time now 2017-Nov-17 21:08 UTC.
Position N 36°43' E 000°57'.
Warning: this ship's position is 39 days out of date.

Length 190 m; draft 12.3 m.

Type: Cargo ship. MMSI: 538003569.

Date/timePositionNaut miles runAvg speedWind from/ knotsBaromVisibWave heightAir tempDewpointWater temp
2017-Oct-09 03:48N 36°43' E 000°57'412.1
2017-Oct-09 03:30N 36°43' E 000°52'612.8
2017-Oct-09 03:00N 36°41' E 000°45'713.1
2017-Oct-09 02:30N 36°40' E 000°36'713.2
2017-Oct-09 01:57N 36°39' E 000°27'4913.2
2017-Oct-08 22:14N 36°30' W 000°33'913.3
2017-Oct-08 21:32N 36°29' W 000°44'013.1
2017-Oct-08 21:30N 36°29' W 000°44'1113.3
2017-Oct-08 20:43N 36°27' W 000°57'313.3
2017-Oct-08 20:30N 36°26' W 001°01'713.3
2017-Oct-08 20:00N 36°25' W 001°09'613.2
2017-Oct-08 19:30N 36°24' W 001°17'1513.6
2017-Oct-08 18:24N 36°22' W 001°35'255 7.1
2017-Oct-07 06:35N 35°55' W 006°49'112.9
2017-Oct-07 06:28N 35°55' W 006°51'612.9
2017-Oct-07 06:00N 35°55' W 006°58'713.1
2017-Oct-07 05:30N 35°55' W 007°07'612.7
2017-Oct-07 05:00N 35°55' W 007°14'612.7
2017-Oct-07 04:30N 35°55' W 007°22'612.8
2017-Oct-07 04:00N 35°55' W 007°30'3812.9
2017-Oct-07 01:04N 35°57' W 008°17'2613.1
2017-Oct-06 23:04N 35°57' W 008°49'113.4
2017-Oct-06 23:00N 35°57' W 008°51'713.6
2017-Oct-06 22:29N 35°57' W 008°59'4813.1
2017-Oct-06 18:51N 35°59' W 009°58'4012.3
2017-Oct-06 15:36N 35°60' W 010°47'612.3
2017-Oct-06 15:08N 35°60' W 010°54'212.3
2017-Oct-06 15:00N 35°60' W 010°56'1112.6
2017-Oct-06 14:10N 36°00' W 011°09'212.4
2017-Oct-06 14:00N 36°00' W 011°12'612.4
2017-Oct-06 13:30N 36°00' W 011°20'612.6
2017-Oct-06 13:00N 36°00' W 011°27'812.6
2017-Oct-06 12:22N 36°01' W 011°37'712.7
2017-Oct-06 11:50N 36°01' W 011°45'412.7
2017-Oct-06 11:30N 36°01' W 011°51'712.7
2017-Oct-06 10:59N 36°01' W 011°59'712.8
2017-Oct-06 10:29N 36°01' W 012°07'613.0
2017-Oct-06 10:00N 36°02' W 012°15'712.8
2017-Oct-06 09:27N 36°02' W 012°23'612.8
2017-Oct-06 08:59N 36°02' W 012°31'712.8
2017-Oct-06 08:28N 36°02' W 012°39'612.7
2017-Oct-06 07:59N 36°02' W 012°47'912.8
2017-Oct-06 07:17N 36°02' W 012°57'413.0
2017-Oct-06 07:00N 36°02' W 013°02'36712.5
2017-Oct-05 01:44N 35°48' W 020°35'312.5
2017-Oct-05 01:29N 35°47' W 020°38'612.4
2017-Oct-05 01:00N 35°47' W 020°46'712.5
2017-Oct-05 00:29N 35°46' W 020°54'612.8
2017-Oct-05 00:00N 35°46' W 021°01'612.7
2017-Oct-04 23:30N 35°45' W 021°09'612.6
2017-Oct-04 23:01N 35°45' W 021°17'712.5
2017-Oct-04 22:29N 35°45' W 021°25'612.5
2017-Oct-04 22:00N 35°44' W 021°32'912.5
2017-Oct-04 21:16N 35°43' W 021°44'312.2
2017-Oct-04 21:00N 35°43' W 021°47'1712.5
2017-Oct-04 19:40N 35°41' W 022°08'212.4
2017-Oct-04 19:31N 35°41' W 022°10'712.4
2017-Oct-04 18:56N 35°41' W 022°19'712.5
2017-Oct-04 18:24N 35°40' W 022°27'612.4
2017-Oct-04 17:55N 35°40' W 022°34'612.6
2017-Oct-04 17:28N 35°39' W 022°41'1312.4
2017-Oct-04 16:27N 35°38' W 022°57'612.6
2017-Oct-04 15:58N 35°38' W 023°05'612.6
2017-Oct-04 15:30N 35°37' W 023°12'612.7
2017-Oct-04 15:00N 35°36' W 023°19'712.6
2017-Oct-04 14:29N 35°36' W 023°27'612.7
2017-Oct-04 13:58N 35°35' W 023°35'612.6
2017-Oct-04 13:30N 35°35' W 023°43'812.7
2017-Oct-04 12:55N 35°34' W 023°52'512.6
2017-Oct-04 12:30N 35°34' W 023°58'712.6
2017-Oct-04 11:55N 35°33' W 024°07'512.6
2017-Oct-04 11:30N 35°33' W 024°14'912.7
2017-Oct-04 10:49N 35°32' W 024°24'412.5
2017-Oct-04 10:30N 35°32' W 024°29'812.6
2017-Oct-04 09:53N 35°31' W 024°39'512.5
2017-Oct-04 09:30N 35°31' W 024°44'612.2
2017-Oct-04 09:00N 35°30' W 024°52'612.3
2017-Oct-04 08:28N 35°30' W 024°60'612.4
2017-Oct-04 08:00N 35°29' W 025°07'612.5
2017-Oct-04 07:30N 35°28' W 025°14'612.4
2017-Oct-04 07:00N 35°27' W 025°22'612.7
2017-Oct-04 06:30N 35°26' W 025°30'612.4
2017-Oct-04 06:01N 35°25' W 025°37'612.7
2017-Oct-04 05:30N 35°24' W 025°45'612.7
2017-Oct-04 05:00N 35°23' W 025°52'712.6
2017-Oct-04 04:29N 35°22' W 026°00'612.7
2017-Oct-04 04:00N 35°21' W 026°08'612.6
2017-Oct-04 03:30N 35°20' W 026°15'812.8
2017-Oct-04 02:51N 35°18' W 026°26'412.7
2017-Oct-04 02:30N 35°17' W 026°31'  
Track history (hours):
 
Tides and Currents Weather Stations Pressure Air Temp Water Temp Dewpoint Dewpoint Depression Visibility Wind Speed Wind Dir Waves Ship Positions

Emerald

Last reported at 2017-Oct-09 03:48 UTC. Time now 2017-Nov-17 21:08 UTC.
Position N 36°43' E 000°57'.
Warning: this ship's position is 39 days out of date.

Length 190 m; draft 12.3 m.

Type: Cargo ship. MMSI: 538003569.

Date/timePositionNaut miles runAvg speedWind from/ knotsBaromVisibWave heightAir tempDewpointWater temp
2017-Oct-09 03:48N 36°43' E 000°57'412.1
2017-Oct-09 03:30N 36°43' E 000°52'612.8
2017-Oct-09 03:00N 36°41' E 000°45'713.1
2017-Oct-09 02:30N 36°40' E 000°36'713.2
2017-Oct-09 01:57N 36°39' E 000°27'4913.2
2017-Oct-08 22:14N 36°30' W 000°33'913.3
2017-Oct-08 21:32N 36°29' W 000°44'013.1
2017-Oct-08 21:30N 36°29' W 000°44'1113.3
2017-Oct-08 20:43N 36°27' W 000°57'313.3
2017-Oct-08 20:30N 36°26' W 001°01'713.3
2017-Oct-08 20:00N 36°25' W 001°09'613.2
2017-Oct-08 19:30N 36°24' W 001°17'1513.6
2017-Oct-08 18:24N 36°22' W 001°35'255 7.1
2017-Oct-07 06:35N 35°55' W 006°49'112.9
2017-Oct-07 06:28N 35°55' W 006°51'612.9
2017-Oct-07 06:00N 35°55' W 006°58'713.1
2017-Oct-07 05:30N 35°55' W 007°07'612.7
2017-Oct-07 05:00N 35°55' W 007°14'612.7
2017-Oct-07 04:30N 35°55' W 007°22'612.8
2017-Oct-07 04:00N 35°55' W 007°30'3812.9
2017-Oct-07 01:04N 35°57' W 008°17'2613.1
2017-Oct-06 23:04N 35°57' W 008°49'113.4
2017-Oct-06 23:00N 35°57' W 008°51'713.6
2017-Oct-06 22:29N 35°57' W 008°59'4813.1
2017-Oct-06 18:51N 35°59' W 009°58'4012.3
2017-Oct-06 15:36N 35°60' W 010°47'612.3
2017-Oct-06 15:08N 35°60' W 010°54'212.3
2017-Oct-06 15:00N 35°60' W 010°56'1112.6
2017-Oct-06 14:10N 36°00' W 011°09'212.4
2017-Oct-06 14:00N 36°00' W 011°12'612.4
2017-Oct-06 13:30N 36°00' W 011°20'612.6
2017-Oct-06 13:00N 36°00' W 011°27'812.6
2017-Oct-06 12:22N 36°01' W 011°37'712.7
2017-Oct-06 11:50N 36°01' W 011°45'412.7
2017-Oct-06 11:30N 36°01' W 011°51'712.7
2017-Oct-06 10:59N 36°01' W 011°59'712.8
2017-Oct-06 10:29N 36°01' W 012°07'613.0
2017-Oct-06 10:00N 36°02' W 012°15'712.8
2017-Oct-06 09:27N 36°02' W 012°23'612.8
2017-Oct-06 08:59N 36°02' W 012°31'712.8
2017-Oct-06 08:28N 36°02' W 012°39'612.7
2017-Oct-06 07:59N 36°02' W 012°47'912.8
2017-Oct-06 07:17N 36°02' W 012°57'413.0
2017-Oct-06 07:00N 36°02' W 013°02'36712.5
2017-Oct-05 01:44N 35°48' W 020°35'312.5
2017-Oct-05 01:29N 35°47' W 020°38'612.4
2017-Oct-05 01:00N 35°47' W 020°46'712.5
2017-Oct-05 00:29N 35°46' W 020°54'612.8
2017-Oct-05 00:00N 35°46' W 021°01'612.7
2017-Oct-04 23:30N 35°45' W 021°09'612.6
2017-Oct-04 23:01N 35°45' W 021°17'712.5
2017-Oct-04 22:29N 35°45' W 021°25'612.5
2017-Oct-04 22:00N 35°44' W 021°32'912.5
2017-Oct-04 21:16N 35°43' W 021°44'312.2
2017-Oct-04 21:00N 35°43' W 021°47'1712.5
2017-Oct-04 19:40N 35°41' W 022°08'212.4
2017-Oct-04 19:31N 35°41' W 022°10'712.4
2017-Oct-04 18:56N 35°41' W 022°19'712.5
2017-Oct-04 18:24N 35°40' W 022°27'612.4
2017-Oct-04 17:55N 35°40' W 022°34'612.6
2017-Oct-04 17:28N 35°39' W 022°41'1312.4
2017-Oct-04 16:27N 35°38' W 022°57'612.6
2017-Oct-04 15:58N 35°38' W 023°05'612.6
2017-Oct-04 15:30N 35°37' W 023°12'612.7
2017-Oct-04 15:00N 35°36' W 023°19'712.6
2017-Oct-04 14:29N 35°36' W 023°27'612.7
2017-Oct-04 13:58N 35°35' W 023°35'612.6
2017-Oct-04 13:30N 35°35' W 023°43'812.7
2017-Oct-04 12:55N 35°34' W 023°52'512.6
2017-Oct-04 12:30N 35°34' W 023°58'712.6
2017-Oct-04 11:55N 35°33' W 024°07'512.6
2017-Oct-04 11:30N 35°33' W 024°14'912.7
2017-Oct-04 10:49N 35°32' W 024°24'412.5
2017-Oct-04 10:30N 35°32' W 024°29'812.6
2017-Oct-04 09:53N 35°31' W 024°39'512.5
2017-Oct-04 09:30N 35°31' W 024°44'612.2
2017-Oct-04 09:00N 35°30' W 024°52'612.3
2017-Oct-04 08:28N 35°30' W 024°60'612.4
2017-Oct-04 08:00N 35°29' W 025°07'612.5
2017-Oct-04 07:30N 35°28' W 025°14'612.4
2017-Oct-04 07:00N 35°27' W 025°22'612.7
2017-Oct-04 06:30N 35°26' W 025°30'612.4
2017-Oct-04 06:01N 35°25' W 025°37'612.7
2017-Oct-04 05:30N 35°24' W 025°45'612.7
2017-Oct-04 05:00N 35°23' W 025°52'712.6
2017-Oct-04 04:29N 35°22' W 026°00'612.7
2017-Oct-04 04:00N 35°21' W 026°08'612.6
2017-Oct-04 03:30N 35°20' W 026°15'812.8
2017-Oct-04 02:51N 35°18' W 026°26'412.7
2017-Oct-04 02:30N 35°17' W 026°31'  

Dump ship's entire track history